Touggourt Sidi Madhi Airport

DAUK · Ouargla, 阿尔及利亚

罗盘
风向 的 风向 040° Touggourt Sidi Madhi Airport 1/19
风: 4 kt, 2 beaufort

3 kt

2 kt
改变
0 ft 1.000 2.000 3.000 4.000 5.000
CAVOK
METAR DAUK 232000Z 04004KT CAVOK 34/08 Q1007

METAR Touggourt Sidi Madhi Airport - DAUK/TGR

Touggourt Sidi Madhi Airport是,阿尔及利亚中的中型机场。 该机场位于纬度33,07335和经度6,08958。 该机场有一条跑道: 1/19. 本场的ICAO机场代码为DAUK。 该机场的IATA代码为TGR。 机场在Alger FIR中。

该航空气象观测是针对Touggourt Sidi Madhi Airport在2024年6月23日 21:00, 当地时间进行的。

机场观察

风向为040°,速度为4 kt。

天气为CAVOK。这意味着在5.000 ft或MSA(最低安全高度)以下(以较高者为准)以下没有云。这也意味着没有观测到积雨云或高耸的积云,可见度为10 km 或者更多或更高。此外,不会有雾,降雨或其他重要天气。

温度和风寒是34 °C。 露点为8 °C,相对湿度为20%。 海平面上的气压为1007 hPa (QNH)。

白天

今天,太阳从05:27升起,在19:48降落。 这适用于Touggourt Sidi Madhi Airport,世界夏令时可能有所不同。 当地时间与世界标准时间之间的时差为+1 小时。 夏令时目前正在进行中。

公司介绍

我们没有关于这个机场的公司信息。

体会

到Vliegles.nl去找飞行课程,跳伞和其他飞行体验。 浏览页面,了解Touggourt Sidi Madhi Airport附近所有可用的活动。 你也可以使用搜索功能来寻找你所在地附近的特定飞行课程、跳伞或其他飞行体验。

跑道

Id 标题 侧风 逆风 侧风 %
1/19 010°-190° 2 kt 3 kt 50 %

逆风成分最大的方向会被突出显示,并用于横风计算。 这并不一定意味着这个方向在使用。

温度 & 天气

温度 34 °C
露点 8 °C
相对湿度 20%
Kp-index 2 (0-9)

白天

日出
05:27 (7:51)
中午
12:37
日落
19:48

小工具

你想在你的网站上有一个关于Touggourt Sidi Madhi Airport的当前航空天气(METAR)的小部件吗?

显示HTML代码
报告变更